createdAt,value
2019-02-25T00:01:57.569Z,35.70
2019-02-25T00:04:28.022Z,42.00
2019-02-25T00:06:58.451Z,38.97
2019-02-25T00:09:28.914Z,44.47
2019-02-25T00:11:59.275Z,40.57
2019-02-25T00:14:29.639Z,37.30
2019-02-25T00:16:59.984Z,39.20
2019-02-25T00:19:30.374Z,38.53
2019-02-25T00:22:00.813Z,39.87
2019-02-25T00:24:31.331Z,38.77
2019-02-25T00:27:01.768Z,38.17
2019-02-25T00:29:32.152Z,35.67
2019-02-25T00:32:02.521Z,41.00
2019-02-25T00:34:32.917Z,39.80
2019-02-25T00:37:03.267Z,40.80
2019-02-25T00:39:33.658Z,43.57
2019-02-25T00:42:04.017Z,38.03
2019-02-25T00:44:34.412Z,40.27
2019-02-25T00:47:04.817Z,34.03
2019-02-25T00:49:35.269Z,36.23
2019-02-25T00:52:05.633Z,37.87
2019-02-25T00:54:36.006Z,32.20
2019-02-25T00:57:06.358Z,39.43
2019-02-25T00:59:37.145Z,36.93
2019-02-25T01:02:07.782Z,40.70
2019-02-25T01:04:38.233Z,42.20
2019-02-25T01:07:08.764Z,41.67
2019-02-25T01:09:39.302Z,38.30
2019-02-25T01:12:10.134Z,36.80
2019-02-25T01:14:40.523Z,39.27
2019-02-25T01:17:10.862Z,37.73
2019-02-25T01:19:41.267Z,36.40
2019-02-25T01:22:11.628Z,41.93
2019-02-25T01:24:42.002Z,36.37
2019-02-25T01:27:12.338Z,34.67
2019-02-25T01:29:42.706Z,34.27
2019-02-25T01:32:13.136Z,36.77
2019-02-25T01:34:43.524Z,33.70
2019-02-25T01:37:13.949Z,33.93
2019-02-25T01:39:44.323Z,33.63
2019-02-25T01:42:16.440Z,32.37
2019-02-25T01:44:46.823Z,32.03
2019-02-25T01:47:17.184Z,27.60
2019-02-25T01:49:47.571Z,28.27
2019-02-25T01:52:17.915Z,32.37
2019-02-25T01:54:48.300Z,36.27
2019-02-25T01:57:18.635Z,33.30
2019-02-25T01:59:49.027Z,30.83
2019-02-25T02:02:19.385Z,31.23
2019-02-25T02:04:51.147Z,39.23
2019-02-25T02:07:23.157Z,33.07
2019-02-25T02:09:53.613Z,31.00
2019-02-25T02:12:23.970Z,30.93
2019-02-25T02:14:54.436Z,30.13
2019-02-25T02:17:24.800Z,33.47
2019-02-25T02:19:55.202Z,28.73
2019-02-25T02:22:25.626Z,28.83
2019-02-25T02:24:56.018Z,30.10
2019-02-25T02:27:26.355Z,29.60
2019-02-25T02:29:56.921Z,33.57
2019-02-25T02:32:27.275Z,32.03
2019-02-25T02:34:57.654Z,28.23
2019-02-25T02:37:28.004Z,28.70
2019-02-25T02:39:58.400Z,26.50
2019-02-25T02:42:28.834Z,25.13
2019-02-25T02:44:59.281Z,29.63
2019-02-25T02:47:45.334Z,31.33
2019-02-25T02:50:18.934Z,28.50
2019-02-25T02:52:49.282Z,30.10
2019-02-25T02:55:19.659Z,28.77
2019-02-25T02:57:50.023Z,30.00
2019-02-25T03:00:20.473Z,31.53
2019-02-25T03:02:50.901Z,27.33
2019-02-25T03:05:21.268Z,26.37
2019-02-25T03:07:51.620Z,24.53
2019-02-25T03:10:22.034Z,30.97
2019-02-25T03:12:52.381Z,28.10
2019-02-25T03:15:23.210Z,26.17
2019-02-25T03:17:53.570Z,28.87
2019-02-25T03:20:24.028Z,26.97
2019-02-25T03:22:54.460Z,25.33
2019-02-25T03:25:24.922Z,27.27
2019-02-25T03:27:55.269Z,25.37
2019-02-25T03:30:25.664Z,25.43
2019-02-25T03:32:56.023Z,28.30
2019-02-25T03:35:26.405Z,29.50
2019-02-25T03:37:56.768Z,28.77
2019-02-25T03:40:27.229Z,31.47
2019-02-25T03:42:57.588Z,26.13
2019-02-25T03:45:27.972Z,27.70
2019-02-25T03:47:58.390Z,24.87
2019-02-25T03:50:28.786Z,29.70
2019-02-25T03:52:59.142Z,25.47
2019-02-25T03:55:29.601Z,27.80
2019-02-25T03:57:59.947Z,30.70
2019-02-25T04:00:30.397Z,29.63
2019-02-25T04:03:00.832Z,25.43
2019-02-25T04:05:31.317Z,29.03
2019-02-25T04:08:01.739Z,27.83
2019-02-25T04:10:32.133Z,28.87
2019-02-25T04:13:02.482Z,26.17
2019-02-25T04:15:37.573Z,30.93
2019-02-25T04:18:07.993Z,30.60
2019-02-25T04:20:38.387Z,30.23
2019-02-25T04:23:08.791Z,28.07
2019-02-25T04:25:39.197Z,28.33
2019-02-25T04:28:09.571Z,27.27
2019-02-25T04:30:40.043Z,26.50
2019-02-25T04:33:10.403Z,27.77
2019-02-25T04:35:40.773Z,35.93
2019-02-25T04:38:11.162Z,114.00
2019-02-25T04:40:42.527Z,55.23
2019-02-25T04:43:12.881Z,57.10
2019-02-25T04:45:43.279Z,43.10
2019-02-25T04:48:13.645Z,35.77
2019-02-25T04:50:44.032Z,25.27
2019-02-25T04:53:14.397Z,33.57
2019-02-25T04:55:44.784Z,30.90
2019-02-25T04:58:15.136Z,27.37
2019-02-25T05:00:45.660Z,29.47
2019-02-25T05:03:16.073Z,26.60
2019-02-25T05:05:46.482Z,29.30
2019-02-25T05:08:16.910Z,26.93
2019-02-25T05:10:47.289Z,25.67
2019-02-25T05:13:17.724Z,27.03
2019-02-25T05:15:48.116Z,29.00
2019-02-25T05:18:18.481Z,30.17
2019-02-25T05:20:48.928Z,25.93
2019-02-25T05:23:19.297Z,32.20
2019-02-25T05:25:49.676Z,30.70
2019-02-25T05:28:20.037Z,26.33
2019-02-25T05:30:50.863Z,27.57
2019-02-25T05:33:21.258Z,27.80
2019-02-25T05:35:51.641Z,30.20
2019-02-25T05:38:22.006Z,28.37
2019-02-25T05:40:52.408Z,28.30
2019-02-25T05:43:23.838Z,25.83
2019-02-25T05:45:54.217Z,35.37
2019-02-25T05:48:24.590Z,37.97
2019-02-25T05:50:54.970Z,44.03
2019-02-25T05:53:25.396Z,49.67
2019-02-25T05:55:55.857Z,38.93
2019-02-25T05:58:26.207Z,37.83
2019-02-25T06:00:56.664Z,29.97
2019-02-25T06:03:27.836Z,34.23
2019-02-25T06:05:59.234Z,31.20
2019-02-25T06:08:29.607Z,31.20
2019-02-25T06:10:59.989Z,32.33
2019-02-25T06:13:30.432Z,34.07
2019-02-25T06:16:00.893Z,31.80
2019-02-25T06:18:31.324Z,39.53
2019-02-25T06:21:01.719Z,91.10
2019-02-25T06:23:32.220Z,69.20
2019-02-25T06:26:02.615Z,73.17
2019-02-25T06:28:32.983Z,54.70
2019-02-25T06:31:03.372Z,70.07
2019-02-25T06:33:33.798Z,93.37
2019-02-25T06:36:04.180Z,88.97
2019-02-25T06:38:34.536Z,83.00
2019-02-25T06:41:04.935Z,105.93
2019-02-25T06:43:35.365Z,89.30
2019-02-25T06:46:05.743Z,71.73
2019-02-25T06:48:36.142Z,58.67
2019-02-25T06:51:06.521Z,48.30
2019-02-25T06:53:36.880Z,48.67
2019-02-25T06:56:07.263Z,41.27
2019-02-25T06:58:37.613Z,42.17
2019-02-25T07:01:07.993Z,41.57
2019-02-25T07:03:38.421Z,44.27
2019-02-25T07:06:10.447Z,45.63
2019-02-25T07:09:00.524Z,50.60
2019-02-25T07:11:34.143Z,57.63
2019-02-25T07:14:08.813Z,56.77
2019-02-25T07:16:47.077Z,54.47
2019-02-25T07:19:19.139Z,58.00
2019-02-25T07:21:51.164Z,39.43
2019-02-25T07:24:29.109Z,37.93
2019-02-25T07:27:01.126Z,30.67
2019-02-25T07:29:36.038Z,37.67
2019-02-25T07:32:08.056Z,36.17
2019-02-25T07:34:46.143Z,40.83
2019-02-25T07:37:23.960Z,35.93
2019-02-25T07:39:55.950Z,36.37
2019-02-25T07:42:27.971Z,41.73
2019-02-25T07:44:59.978Z,36.60
2019-02-25T07:47:32.018Z,38.23
2019-02-25T07:50:09.940Z,37.97
2019-02-25T07:52:44.932Z,37.33
2019-02-25T07:55:25.878Z,38.20
2019-02-25T07:58:13.862Z,35.47
2019-02-25T08:01:00.973Z,42.73
2019-02-25T08:03:33.328Z,39.87
2019-02-25T08:06:07.755Z,33.97
2019-02-25T08:09:00.133Z,40.97
2019-02-25T08:11:34.742Z,33.43
2019-02-25T08:14:15.354Z,42.07
2019-02-25T08:16:53.252Z,45.47
2019-02-25T08:19:26.463Z,40.70
2019-02-25T08:22:10.360Z,50.40
2019-02-25T08:24:48.067Z,40.83
2019-02-25T08:27:21.115Z,45.37
2019-02-25T08:29:59.222Z,39.85
2019-02-25T08:32:47.411Z,42.33
2019-02-25T08:35:56.236Z,45.40
2019-02-25T08:38:31.203Z,52.75
2019-02-25T08:41:09.050Z,50.00
2019-02-25T08:43:41.105Z,44.30
2019-02-25T08:46:13.226Z,35.80
2019-02-25T08:48:45.194Z,39.27
2019-02-25T08:51:15.598Z,37.37
2019-02-25T08:53:46.281Z,43.45
2019-02-25T08:56:16.732Z,39.65
2019-02-25T08:58:47.075Z,40.95
2019-02-25T09:01:17.521Z,42.90
2019-02-25T09:03:47.931Z,44.38
2019-02-25T09:06:18.385Z,44.23
2019-02-25T09:08:48.732Z,41.48
2019-02-25T09:11:19.192Z,48.45
2019-02-25T09:13:49.605Z,49.50
2019-02-25T09:16:20.050Z,43.63
2019-02-25T09:18:50.459Z,41.55
2019-02-25T09:21:20.860Z,44.65
2019-02-25T09:23:51.201Z,47.60
2019-02-25T09:26:21.592Z,45.43
2019-02-25T09:28:52.959Z,38.58
2019-02-25T09:31:23.336Z,43.95
2019-02-25T09:33:53.806Z,36.53
2019-02-25T09:36:25.674Z,46.55
2019-02-25T09:38:56.831Z,41.83
2019-02-25T09:41:30.170Z,40.80
2019-02-25T09:43:59.705Z,40.83
2019-02-25T09:46:30.087Z,33.70
2019-02-25T09:49:00.422Z,38.63
2019-02-25T09:51:30.813Z,42.93
2019-02-25T09:54:01.148Z,45.90
2019-02-25T09:56:31.592Z,50.52
2019-02-25T09:59:01.931Z,50.43
2019-02-25T10:01:32.469Z,43.02
2019-02-25T10:04:02.808Z,51.18
2019-02-25T10:06:33.190Z,41.85
2019-02-25T10:09:04.140Z,39.33
2019-02-25T10:11:34.989Z,45.80
2019-02-25T10:14:05.603Z,43.33
2019-02-25T10:16:36.050Z,47.05
2019-02-25T10:19:06.391Z,44.53
2019-02-25T10:21:36.827Z,50.00
2019-02-25T10:24:07.239Z,42.43
2019-02-25T10:26:37.635Z,44.53
2019-02-25T10:29:07.968Z,66.67
2019-02-25T10:31:39.740Z,30.40
2019-02-25T10:34:10.542Z,39.45
2019-02-25T10:36:41.025Z,45.48
2019-02-25T10:39:13.125Z,43.48
2019-02-25T10:41:43.872Z,37.80
2019-02-25T10:44:14.292Z,30.40
2019-02-25T10:46:45.263Z,29.48
2019-02-25T10:49:16.783Z,35.55
2019-02-25T10:51:47.312Z,29.52
2019-02-25T10:54:20.766Z,30.92
2019-02-25T10:56:51.579Z,33.45
2019-02-25T10:59:23.001Z,28.70
2019-02-25T11:01:53.458Z,22.40
2019-02-25T11:04:26.089Z,26.07
2019-02-25T11:06:56.387Z,25.92
2019-02-25T11:09:37.648Z,29.05
2019-02-25T11:12:08.605Z,23.12
2019-02-25T11:14:41.002Z,28.55
2019-02-25T11:17:11.257Z,29.32
2019-02-25T11:19:41.615Z,27.32
2019-02-25T11:22:14.026Z,15.00
2019-02-25T11:24:44.165Z,17.65
2019-02-25T11:27:14.557Z,20.37
2019-02-25T11:29:46.224Z,20.12
2019-02-25T11:32:18.905Z,20.70
2019-02-25T11:34:49.178Z,24.05
2019-02-25T11:37:22.461Z,21.50
2019-02-25T11:39:52.605Z,26.73
2019-02-25T11:42:24.150Z,13.48
2019-02-25T11:44:56.497Z,22.70
2019-02-25T11:47:26.633Z,25.32
2019-02-25T11:49:57.343Z,26.12
2019-02-25T11:52:27.728Z,20.45
2019-02-25T11:54:58.195Z,24.72
2019-02-25T11:57:28.660Z,13.13
2019-02-25T11:59:59.006Z,19.48
2019-02-25T12:02:29.562Z,15.75
2019-02-25T12:04:59.891Z,15.40
2019-02-25T12:07:30.272Z,12.23
2019-02-25T12:10:00.609Z,17.92
2019-02-25T12:12:30.985Z,12.35
2019-02-25T12:15:01.330Z,16.23
2019-02-25T12:17:32.896Z,12.18
2019-02-25T12:20:03.385Z,17.30
2019-02-25T12:22:33.758Z,14.58
2019-02-25T12:25:06.506Z,16.80
2019-02-25T12:27:36.951Z,14.75
2019-02-25T12:30:13.381Z,12.98
2019-02-25T12:32:43.840Z,14.50
2019-02-25T12:35:14.181Z,14.35
2019-02-25T12:37:44.648Z,17.85
2019-02-25T12:40:16.503Z,15.98
2019-02-25T12:42:47.167Z,15.45
2019-02-25T12:45:17.578Z,14.70
2019-02-25T12:47:48.036Z,11.83
2019-02-25T12:50:19.328Z,12.73
2019-02-25T12:52:49.789Z,10.72
2019-02-25T12:55:20.590Z,13.22
2019-02-25T12:57:50.983Z,11.35
2019-02-25T13:00:23.593Z,12.05
2019-02-25T13:02:54.249Z,11.68
2019-02-25T13:05:25.626Z,9.88
2019-02-25T13:07:56.008Z,9.93
2019-02-25T13:10:26.340Z,15.38
2019-02-25T13:12:56.723Z,12.70
2019-02-25T13:15:27.078Z,8.03
2019-02-25T13:17:57.464Z,13.75
2019-02-25T13:20:27.801Z,10.65
2019-02-25T13:22:58.257Z,10.23
2019-02-25T13:25:32.455Z,11.00
2019-02-25T13:28:04.220Z,15.08
2019-02-25T13:30:34.753Z,13.20
2019-02-25T13:33:05.163Z,9.55
2019-02-25T13:35:35.483Z,8.03
2019-02-25T13:38:05.873Z,8.55
2019-02-25T13:40:36.400Z,12.88
2019-02-25T13:43:07.074Z,13.70
2019-02-25T13:45:37.415Z,9.98
2019-02-25T13:48:07.865Z,11.08
2019-02-25T13:50:38.355Z,18.00
2019-02-25T13:53:08.828Z,10.50
2019-02-25T13:55:39.735Z,13.90
2019-02-25T13:58:10.120Z,13.43
2019-02-25T14:00:40.463Z,14.87
2019-02-25T14:03:10.860Z,13.72
2019-02-25T14:05:41.208Z,15.23
2019-02-25T14:08:11.587Z,18.77
2019-02-25T14:10:41.936Z,14.15
2019-02-25T14:13:12.395Z,12.65
2019-02-25T14:15:42.731Z,15.65
2019-02-25T14:18:13.188Z,15.70
2019-02-25T14:20:43.587Z,14.20
2019-02-25T14:23:16.073Z,12.50
2019-02-25T14:25:46.084Z,15.23
2019-02-25T14:28:16.462Z,13.18
2019-02-25T14:30:46.905Z,7.62
2019-02-25T14:33:17.295Z,9.28
2019-02-25T14:35:47.630Z,4.55
2019-02-25T14:38:20.406Z,4.70
2019-02-25T14:40:51.897Z,6.62
2019-02-25T14:43:24.952Z,5.80
2019-02-25T14:45:56.799Z,4.15
2019-02-25T14:48:27.931Z,3.70
2019-02-25T14:50:59.313Z,5.42
2019-02-25T14:53:29.763Z,4.00
2019-02-25T14:56:03.866Z,7.17
2019-02-25T14:58:35.566Z,4.78
2019-02-25T15:01:05.261Z,6.15
2019-02-25T15:03:35.707Z,7.65
2019-02-25T15:06:06.059Z,5.58
2019-02-25T15:08:36.500Z,7.20
2019-02-25T15:11:08.686Z,9.08
2019-02-25T15:13:39.204Z,10.58
2019-02-25T15:16:12.205Z,4.87
2019-02-25T15:18:42.578Z,8.40
2019-02-25T15:21:15.689Z,7.17
2019-02-25T15:23:45.155Z,9.10
2019-02-25T15:26:17.242Z,7.00
2019-02-25T15:28:47.612Z,18.07
2019-02-25T15:31:18.033Z,14.18
2019-02-25T15:33:48.425Z,15.28
2019-02-25T15:36:20.482Z,15.08
2019-02-25T15:38:51.334Z,20.10
2019-02-25T15:41:21.803Z,20.45
2019-02-25T15:43:52.546Z,18.55
2019-02-25T15:46:24.191Z,18.55
2019-02-25T15:48:55.184Z,18.75
2019-02-25T15:51:25.755Z,20.75
2019-02-25T15:53:57.712Z,26.90
2019-02-25T15:56:30.120Z,29.55
2019-02-25T15:59:00.528Z,33.08
2019-02-25T16:01:31.034Z,25.45
2019-02-25T16:04:04.294Z,28.15
2019-02-25T16:06:38.124Z,19.98
2019-02-25T16:09:09.854Z,17.70
2019-02-25T16:11:43.461Z,20.02
2019-02-25T16:14:14.117Z,45.03
2019-02-25T16:16:45.438Z,38.53
2019-02-25T16:19:16.949Z,52.70
2019-02-25T16:21:47.705Z,29.25
2019-02-25T16:24:18.790Z,24.98
2019-02-25T16:26:50.439Z,28.98
2019-02-25T16:29:55.979Z,22.87
2019-02-25T16:32:42.201Z,26.17
2019-02-25T16:35:17.289Z,38.80
2019-02-25T16:37:50.371Z,67.95
2019-02-25T16:40:24.469Z,60.63
2019-02-25T16:42:55.026Z,72.90
2019-02-25T16:45:28.522Z,45.70
2019-02-25T16:47:58.665Z,37.45
2019-02-25T16:50:29.375Z,51.50
2019-02-25T16:53:03.750Z,45.88
2019-02-25T16:55:32.344Z,51.83
2019-02-25T16:58:03.721Z,50.23
2019-02-25T17:00:37.058Z,41.98
2019-02-25T17:03:08.214Z,46.20
2019-02-25T17:05:40.269Z,52.58
2019-02-25T17:08:12.914Z,61.00
2019-02-25T17:10:43.367Z,62.27
2019-02-25T17:13:14.901Z,47.75
2019-02-25T17:15:46.809Z,48.63
2019-02-25T17:18:18.427Z,48.08
2019-02-25T17:20:50.321Z,46.30
2019-02-25T17:23:22.887Z,47.98
2019-02-25T17:25:53.266Z,49.15
2019-02-25T17:28:25.765Z,42.48
2019-02-25T17:30:57.068Z,44.58
2019-02-25T17:33:30.341Z,41.13
2019-02-25T17:36:00.707Z,37.60
2019-02-25T17:38:31.134Z,36.88
2019-02-25T17:41:04.034Z,32.10
2019-02-25T17:43:36.356Z,40.00
2019-02-25T17:46:07.440Z,38.23
2019-02-25T17:48:38.885Z,45.85
2019-02-25T17:51:09.357Z,35.52
2019-02-25T17:53:39.714Z,40.55
2019-02-25T17:56:10.188Z,44.30
2019-02-25T17:58:42.400Z,30.43
2019-02-25T18:01:31.164Z,28.40
2019-02-25T18:04:02.678Z,33.73
2019-02-25T18:06:34.409Z,31.30
2019-02-25T18:09:08.053Z,40.63
2019-02-25T18:11:41.219Z,43.48
2019-02-25T18:14:13.313Z,35.28
2019-02-25T18:16:46.678Z,35.05
2019-02-25T18:19:18.609Z,31.95
2019-02-25T18:21:49.152Z,32.53
2019-02-25T18:24:19.510Z,36.30
2019-02-25T18:26:50.028Z,39.58
2019-02-25T18:29:21.245Z,33.08
2019-02-25T18:31:53.042Z,37.95
2019-02-25T18:34:23.585Z,24.75
2019-02-25T18:36:55.489Z,38.13
2019-02-25T18:39:27.478Z,38.67
2019-02-25T18:41:58.306Z,36.70
2019-02-25T18:44:30.206Z,39.55
2019-02-25T18:47:00.616Z,37.58
2019-02-25T18:49:32.752Z,30.75
2019-02-25T18:52:03.274Z,29.00
2019-02-25T18:54:33.776Z,30.15
2019-02-25T18:57:05.539Z,28.17
2019-02-25T18:59:36.501Z,32.75
2019-02-25T19:02:07.975Z,35.28
2019-02-25T19:04:41.153Z,89.77
2019-02-25T19:07:11.172Z,40.55
2019-02-25T19:09:43.044Z,29.42
2019-02-25T19:12:15.271Z,32.95
2019-02-25T19:14:45.612Z,34.15
2019-02-25T19:17:16.019Z,37.45
2019-02-25T19:19:47.280Z,31.70
2019-02-25T19:22:19.538Z,23.57
2019-02-25T19:24:50.870Z,26.68
2019-02-25T19:27:22.300Z,37.50
2019-02-25T19:29:54.177Z,37.05
2019-02-25T19:32:24.803Z,37.23
2019-02-25T19:34:56.230Z,39.15
2019-02-25T19:37:31.149Z,28.27
2019-02-25T19:39:59.769Z,29.52
2019-02-25T19:42:31.300Z,41.92
2019-02-25T19:45:05.739Z,31.50
2019-02-25T19:47:35.235Z,32.88
2019-02-25T19:50:11.517Z,35.83
2019-02-25T19:52:44.139Z,28.40
2019-02-25T19:55:15.789Z,29.70
2019-02-25T19:57:47.380Z,32.42
2019-02-25T20:00:25.728Z,22.17
2019-02-25T20:03:05.547Z,26.02
2019-02-25T20:05:33.320Z,23.90
2019-02-25T20:08:04.058Z,29.72
2019-02-25T20:10:34.887Z,27.48
2019-02-25T20:13:08.361Z,28.02
2019-02-25T20:15:39.960Z,29.00
2019-02-25T20:18:11.634Z,26.55
2019-02-25T20:20:43.501Z,25.12
2019-02-25T20:23:13.924Z,22.32
2019-02-25T20:25:46.480Z,29.82
2019-02-25T20:28:18.628Z,21.23
2019-02-25T20:30:51.488Z,24.82
2019-02-25T20:33:25.683Z,19.52
2019-02-25T20:35:56.021Z,23.47
2019-02-25T20:38:27.122Z,29.40
2019-02-25T20:40:59.988Z,26.70
2019-02-25T20:43:32.380Z,20.97
2019-02-25T20:46:04.034Z,23.02
2019-02-25T20:48:34.841Z,28.23
2019-02-25T20:51:07.214Z,19.42
2019-02-25T20:53:37.913Z,20.48
2019-02-25T20:56:08.426Z,24.43
2019-02-25T20:58:43.041Z,14.53
2019-02-25T21:01:16.082Z,21.42
2019-02-25T21:03:48.590Z,23.22
2019-02-25T21:06:20.720Z,22.37
2019-02-25T21:08:50.923Z,23.45
2019-02-25T21:11:21.444Z,24.37
2019-02-25T21:13:51.937Z,24.55
2019-02-25T21:16:24.033Z,21.10
2019-02-25T21:18:55.030Z,20.55
2019-02-25T21:21:27.989Z,19.92
2019-02-25T21:24:01.307Z,15.78
2019-02-25T21:26:31.637Z,17.98
2019-02-25T21:29:04.275Z,20.92
2019-02-25T21:31:34.645Z,24.15
2019-02-25T21:34:05.111Z,20.43
2019-02-25T21:36:35.929Z,24.20
2019-02-25T21:39:10.050Z,22.60
2019-02-25T21:41:43.627Z,16.97
2019-02-25T21:44:16.652Z,19.27
2019-02-25T21:46:49.562Z,18.92
2019-02-25T21:49:20.274Z,20.45
2019-02-25T21:51:50.200Z,21.85
2019-02-25T21:54:20.609Z,17.95
2019-02-25T21:56:51.053Z,14.87
2019-02-25T21:59:21.380Z,18.57
2019-02-25T22:01:53.688Z,14.63
2019-02-25T22:04:24.938Z,16.73
2019-02-25T22:06:57.998Z,21.05
2019-02-25T22:09:36.514Z,17.12
2019-02-25T22:12:00.417Z,21.00
2019-02-25T22:14:30.839Z,19.48
2019-02-25T22:17:01.285Z,18.02
2019-02-25T22:19:32.520Z,18.55
2019-02-25T22:22:04.950Z,16.15
2019-02-25T22:24:36.656Z,18.82
2019-02-25T22:27:08.963Z,19.50
2019-02-25T22:29:41.279Z,16.12
2019-02-25T22:32:11.559Z,18.42
2019-02-25T22:34:41.913Z,20.85
2019-02-25T22:37:16.420Z,15.32
2019-02-25T22:39:46.165Z,13.68
2019-02-25T22:42:16.626Z,13.43
2019-02-25T22:44:47.943Z,13.05
2019-02-25T22:47:21.330Z,18.07
2019-02-25T22:49:52.837Z,16.60
2019-02-25T22:52:26.292Z,13.20
2019-02-25T22:54:55.413Z,18.12
2019-02-25T22:57:27.973Z,8.78
2019-02-25T22:59:57.992Z,14.00
2019-02-25T23:02:28.746Z,19.57
2019-02-25T23:04:59.236Z,13.62
2019-02-25T23:07:29.757Z,19.02
2019-02-25T23:10:00.267Z,14.05
2019-02-25T23:12:31.117Z,16.05
2019-02-25T23:15:03.854Z,16.67
2019-02-25T23:17:37.134Z,17.17
2019-02-25T23:20:09.552Z,13.58
2019-02-25T23:22:40.175Z,12.63
2019-02-25T23:25:11.542Z,16.55
2019-02-25T23:27:42.005Z,23.05
2019-02-25T23:30:15.812Z,17.77
2019-02-25T23:32:46.331Z,19.07
2019-02-25T23:35:18.391Z,19.42
2019-02-25T23:37:49.634Z,15.63
2019-02-25T23:40:21.118Z,16.23
2019-02-25T23:42:51.577Z,16.12
2019-02-25T23:45:23.166Z,13.55
2019-02-25T23:47:57.663Z,21.05
2019-02-25T23:50:29.207Z,15.08
2019-02-25T23:52:59.258Z,20.25
2019-02-25T23:55:29.749Z,13.70
2019-02-25T23:58:00.228Z,13.70
